Time;durP1;ratioP1;P1;durP2;ratioP2;P2;SDS_P1;SDS_P2;PMS_P1;PMS_P2;Temp;Humidity;BMP_temperature;BMP_pressure;BME280_temperature;BME280_humidity;BME280_pressure;Samples;Min_cycle;Max_cycle;Signal;HPM_P1;HPM_P2
2022/01/12 00:02:16;;;;;;;;;;;;;;;16.10;45.39;103656.00;5042794;28;19931;-43
2022/01/12 00:04:43;;;;;;;;;;;;;;;16.09;45.58;103671.19;5041969;28;19929;-43
2022/01/12 00:07:09;;;;;;;;;;;;;;;16.09;46.35;103675.69;5042464;28;20325;-42
2022/01/12 00:09:36;;;;;;;;;;;;;;;16.08;46.34;103680.19;5044193;28;21157;-42
2022/01/12 00:12:02;;;;;;;;;;;;;;;16.08;46.22;103688.19;5046958;28;19931;-42
2022/01/12 00:14:29;;;;;;;;;;;;;;;16.08;46.43;103681.97;5045430;28;19929;-42
2022/01/12 00:16:59;;;;;;;;;;;;;;;16.06;45.50;103687.38;5045267;28;19931;-43
2022/01/12 00:19:27;;;;;;;;;;;;;;;16.05;46.47;103680.31;5041072;28;20325;-42
2022/01/12 00:21:55;;;;;;;;;;;;;;;16.06;45.78;103676.69;5044079;28;19983;-42
2022/01/12 00:24:28;;;;;;;;;;;;;;;16.04;46.34;103666.06;5039454;28;20123;-44
2022/01/12 00:35:11;;;;;;;;;;;;;;;16.00;45.63;103650.19;5041820;28;19991;-42
2022/01/12 00:37:37;;;;;;;;;;;;;;;16.00;46.27;103658.22;5045594;28;19951;-43
2022/01/12 00:40:04;;;;;;;;;;;;;;;15.99;46.55;103652.03;5042261;28;19925;-43
2022/01/12 00:42:31;;;;;;;;;;;;;;;15.97;45.36;103643.22;5042829;28;19924;-42
2022/01/12 00:45:00;;;;;;;;;;;;;;;15.97;45.62;103663.75;5043871;28;19933;-42
2022/01/12 00:47:27;;;;;;;;;;;;;;;15.98;45.44;103676.19;5042680;28;19987;-43
2022/01/12 00:49:54;;;;;;;;;;;;;;;15.96;45.53;103667.34;5045675;28;19929;-42
2022/01/12 00:52:20;;;;;;;;;;;;;;;15.95;45.94;103660.25;5043936;28;19925;-43
2022/01/12 00:54:46;;;;;;;;;;;;;;;15.95;45.63;103658.44;5041894;28;19932;-44
2022/01/12 00:57:13;;;;;;;;;;;;;;;15.95;45.68;103660.25;5041003;28;20320;-43
2022/01/12 00:59:39;;;;;;;;;;;;;;;15.93;45.75;103671.03;5042275;28;20544;-42
2022/01/12 01:02:06;;;;;;;;;;;;;;;15.94;46.47;103672.78;5041629;28;20497;-42
2022/01/12 01:04:33;;;;;;;;;;;;;;;15.95;46.19;103676.31;5043301;28;20627;-42
2022/01/12 01:06:59;;;;;;;;;;;;;;;15.93;45.65;103667.50;5042008;28;20039;-43
2022/01/12 01:09:26;;;;;;;;;;;;;;;15.92;45.53;103663.06;5040892;28;19929;-42
2022/01/12 01:11:53;;;;;;;;;;;;;;;15.91;45.43;103664.88;5045869;28;19939;-42
2022/01/12 01:14:36;;;;;;;;;;;;;;;15.92;45.58;103657.72;5043029;28;20024;-42
2022/01/12 01:25:26;;;;;;;;;;;;;;;15.90;46.28;103651.59;5047257;28;19931;-42
2022/01/12 01:25:32;;;;;;;;;;;;;;;15.87;45.66;103651.72;5041192;28;20236;-42
2022/01/12 01:27:59;;;;;;;;;;;;;;;15.86;46.48;103650.84;5043096;28;19925;-43
2022/01/12 01:30:26;;;;;;;;;;;;;;;15.86;45.43;103648.19;5040581;28;19933;-42
2022/01/12 01:32:53;;;;;;;;;;;;;;;15.86;45.73;103634.81;5040471;28;20228;-43
2022/01/12 01:35:19;;;;;;;;;;;;;;;15.86;46.02;103641.97;5041777;28;19931;-43
2022/01/12 01:37:46;;;;;;;;;;;;;;;15.86;45.50;103652.66;5043820;28;19933;-43
2022/01/12 01:40:13;;;;;;;;;;;;;;;15.86;45.48;103661.56;5043716;28;19931;-43
2022/01/12 01:43:06;;;;;;;;;;;;;;;15.85;45.97;103664.31;5047437;28;19929;-43
2022/01/12 01:53:47;;;;;;;;;;;;;;;15.84;46.35;103684.84;5047395;28;19931;-42
2022/01/12 01:56:13;;;;;;;;;;;;;;;15.84;46.49;103706.25;5042348;28;19925;-42
2022/01/12 01:58:40;;;;;;;;;;;;;;;15.83;45.91;103722.34;5047943;28;19933;-43
2022/01/12 02:01:06;;;;;;;;;;;;;;;15.83;45.83;103715.19;5044845;28;20016;-41
2022/01/12 02:03:33;;;;;;;;;;;;;;;15.83;46.01;103719.66;5048294;28;20010;-42
2022/01/12 02:06:00;;;;;;;;;;;;;;;15.84;45.95;103726.75;5043333;28;19991;-42
2022/01/12 02:08:27;;;;;;;;;;;;;;;15.82;45.87;103734.84;5046605;28;19931;-43
2022/01/12 02:10:57;;;;;;;;;;;;;;;15.83;46.66;103741.06;5044824;28;20391;-42
2022/01/12 02:13:25;;;;;;;;;;;;;;;15.82;45.96;103750.03;5045456;28;19943;-42
2022/01/12 02:15:53;;;;;;;;;;;;;;;15.82;46.76;103758.06;5046757;28;19931;-42
2022/01/12 02:40:46;;;;;;;;;;;;;;;15.82;47.27;103791.00;5047217;28;19929;-42
2022/01/12 02:53:52;;;;;;;;;;;;;;;15.81;46.35;103799.97;5047430;28;19958;-43
2022/01/12 02:56:27;;;;;;;;;;;;;;;15.81;46.52;103796.44;5044256;28;19929;-43
2022/01/12 02:58:56;;;;;;;;;;;;;;;15.81;46.31;103788.41;5043870;28;20333;-44
2022/01/12 03:03:53;;;;;;;;;;;;;;;15.82;46.46;103776.78;5044494;28;19944;-41
2022/01/12 03:06:24;;;;;;;;;;;;;;;15.81;46.58;103786.59;5044767;28;19929;-42
2022/01/12 03:08:51;;;;;;;;;;;;;;;15.82;47.32;103771.44;5046430;28;19925;-42
2022/01/12 03:11:18;;;;;;;;;;;;;;;15.82;46.31;103779.44;5042657;28;20347;-43
2022/01/12 03:13:45;;;;;;;;;;;;;;;15.82;47.15;103772.28;5043139;28;19931;-42
2022/01/12 03:16:18;;;;;;;;;;;;;;;15.82;46.60;103766.06;5045204;28;20325;-43
2022/01/12 03:18:46;;;;;;;;;;;;;;;15.81;46.60;103775.03;5042312;28;20449;-42
2022/01/12 03:21:13;;;;;;;;;;;;;;;15.82;46.30;103774.09;5042794;28;20023;-42
2022/01/12 03:23:39;;;;;;;;;;;;;;;15.79;46.45;103775.94;5043411;28;19971;-44
2022/01/12 03:26:07;;;;;;;;;;;;;;;15.82;46.31;103782.13;5042845;28;19933;-44
2022/01/12 03:28:33;;;;;;;;;;;;;;;15.82;46.87;103782.13;5043391;28;19925;-44
2022/01/12 03:31:19;;;;;;;;;;;;;;;15.81;46.19;103781.25;5040061;28;20329;-44
2022/01/12 03:39:03;;;;;;;;;;;;;;;15.78;46.36;103787.59;5044783;28;19931;-43
2022/01/12 03:41:32;;;;;;;;;;;;;;;15.79;46.45;103799.16;5042468;28;19925;-43
2022/01/12 03:43:59;;;;;;;;;;;;;;;15.78;46.95;103798.28;5047270;28;19924;-43
2022/01/12 03:46:29;;;;;;;;;;;;;;;15.79;46.56;103810.72;5045485;28;20228;-43
2022/01/12 03:48:55;;;;;;;;;;;;;;;15.79;46.51;103816.06;5043211;28;19932;-42
2022/01/12 03:51:22;;;;;;;;;;;;;;;15.78;47.01;103822.38;5043224;28;19935;-43
2022/01/12 03:53:48;;;;;;;;;;;;;;;15.78;46.38;103827.72;5043919;28;19932;-42
2022/01/12 03:56:14;;;;;;;;;;;;;;;15.78;46.72;103829.53;5042076;28;19925;-42
2022/01/12 03:58:41;;;;;;;;;;;;;;;15.79;46.65;103825.91;5044986;28;20044;-43
2022/01/12 04:01:08;;;;;;;;;;;;;;;15.78;46.62;103829.53;5045593;28;19928;-42
2022/01/12 04:03:39;;;;;;;;;;;;;;;15.77;46.75;103823.31;5042041;28;20019;-42
2022/01/12 04:08:51;;;;;;;;;;;;;;;15.81;47.19;103820.50;5042692;28;19929;-42
2022/01/12 04:11:17;;;;;;;;;;;;;;;15.88;46.79;103819.28;5042041;28;19932;-42
2022/01/12 04:13:46;;;;;;;;;;;;;;;15.96;46.39;103817.13;5046855;28;20008;-43
2022/01/12 04:16:13;;;;;;;;;;;;;;;16.06;47.04;103806.91;5041933;28;19929;-42
2022/01/12 04:18:40;;;;;;;;;;;;;;;16.16;46.98;103803.78;5041954;28;19977;-43
2022/01/12 04:21:09;;;;;;;;;;;;;;;16.26;46.84;103791.69;5044779;28;20004;-45
2022/01/12 04:23:36;;;;;;;;;;;;;;;16.37;46.51;103785.00;5041802;28;20018;-42
2022/01/12 04:26:09;;;;;;;;;;;;;;;16.47;46.94;103795.19;5042335;28;19947;-42
2022/01/12 04:28:37;;;;;;;;;;;;;;;16.58;46.14;103800.06;5048504;28;19925;-43
2022/01/12 04:31:03;;;;;;;;;;;;;;;16.68;46.90;103800.47;5044324;28;19925;-43
2022/01/12 04:33:30;;;;;;;;;;;;;;;16.75;46.75;103802.81;5043612;28;19935;-43
2022/01/12 04:35:57;;;;;;;;;;;;;;;16.84;46.29;103800.66;5046775;28;19931;-43
2022/01/12 04:38:25;;;;;;;;;;;;;;;16.91;46.20;103813.69;5043303;28;19932;-43
2022/01/12 04:40:52;;;;;;;;;;;;;;;16.97;45.49;103810.72;5042224;28;20011;-43
2022/01/12 04:43:19;;;;;;;;;;;;;;;17.05;46.00;103812.16;5047655;28;19932;-43
2022/01/12 04:48:33;;;;;;;;;;;;;;;17.16;46.25;103799.94;5041308;28;19932;-43
2022/01/12 04:51:00;;;;;;;;;;;;;;;17.21;46.12;103795.25;5041839;28;19924;-43
2022/01/12 04:53:27;;;;;;;;;;;;;;;17.24;45.70;103795.06;5042569;28;20276;-43
2022/01/12 04:55:54;;;;;;;;;;;;;;;17.26;46.32;103790.53;5039358;28;19932;-43
2022/01/12 04:58:20;;;;;;;;;;;;;;;17.28;45.30;103785.94;5045771;28;19933;-43
2022/01/12 05:00:48;;;;;;;;;;;;;;;17.27;45.83;103783.34;5042420;28;19931;-43
2022/01/12 05:06:21;;;;;;;;;;;;;;;17.25;45.89;103793.28;5042716;28;20024;-43
2022/01/12 05:14:00;;;;;;;;;;;;;;;17.13;45.86;103808.16;5041885;28;19931;-43
2022/01/12 05:16:27;;;;;;;;;;;;;;;17.08;45.43;103820.03;5046024;28;19929;-43
2022/01/12 05:18:54;;;;;;;;;;;;;;;17.03;45.70;103833.66;5047715;28;19943;-44
2022/01/12 05:21:21;;;;;;;;;;;;;;;17.01;45.43;103840.91;5043426;28;19935;-43
2022/01/12 05:23:48;;;;;;;;;;;;;;;16.95;45.56;103846.56;5044613;28;20002;-43
2022/01/12 05:26:15;;;;;;;;;;;;;;;16.91;45.65;103836.94;5045558;28;20329;-43
2022/01/12 05:28:41;;;;;;;;;;;;;;;16.87;45.37;103843.38;5046889;28;20048;-43
2022/01/12 05:31:09;;;;;;;;;;;;;;;16.82;45.43;103851.63;5040561;28;20017;-43
2022/01/12 05:33:36;;;;;;;;;;;;;;;16.80;45.70;103852.63;5041941;28;19925;-43
2022/01/12 05:36:06;;;;;;;;;;;;;;;16.76;46.13;103857.25;5043969;28;20007;-43
2022/01/12 05:38:33;;;;;;;;;;;;;;;16.72;46.03;103856.53;5042972;28;19924;-43
2022/01/12 05:41:01;;;;;;;;;;;;;;;16.70;46.04;103853.03;5041911;28;19925;-43
2022/01/12 05:43:29;;;;;;;;;;;;;;;16.68;45.76;103854.94;5049212;28;19928;-43
2022/01/12 05:46:08;;;;;;;;;;;;;;;16.66;46.93;103855.94;5049067;28;19932;-43
2022/01/12 05:51:19;;;;;;;;;;;;;;;16.62;46.58;103846.31;5045875;28;20465;-43
2022/01/12 05:53:45;;;;;;;;;;;;;;;16.60;46.44;103843.69;5044721;28;19928;-43
2022/01/12 05:56:11;;;;;;;;;;;;;;;16.58;46.48;103842.91;5039403;28;20014;-43
2022/01/12 05:58:38;;;;;;;;;;;;;;;16.58;46.95;103848.25;5050683;28;19933;-43
2022/01/12 06:01:04;;;;;;;;;;;;;;;16.56;46.36;103855.47;5045526;28;19933;-43
2022/01/12 06:03:31;;;;;;;;;;;;;;;16.54;46.67;103857.38;5042702;28;19940;-43
2022/01/12 06:05:58;;;;;;;;;;;;;;;16.51;47.17;103858.38;5047323;28;20371;-43
2022/01/12 06:08:29;;;;;;;;;;;;;;;16.51;46.24;103865.53;5042903;28;19938;-43
2022/01/12 06:10:55;;;;;;;;;;;;;;;16.50;46.90;103866.47;5048549;28;19935;-43
2022/01/12 06:13:21;;;;;;;;;;;;;;;16.48;46.89;103876.38;5045490;28;19972;-43
2022/01/12 06:15:48;;;;;;;;;;;;;;;16.45;46.93;103876.53;5044439;28;20019;-44
2022/01/12 06:18:14;;;;;;;;;;;;;;;16.44;46.59;103888.16;5046997;28;19980;-42
2022/01/12 06:20:41;;;;;;;;;;;;;;;16.44;46.46;103896.19;5045496;28;19936;-43
2022/01/12 06:23:07;;;;;;;;;;;;;;;16.41;46.90;103893.69;5045419;28;19925;-43
2022/01/12 06:25:33;;;;;;;;;;;;;;;16.40;47.43;103898.16;5044183;28;19952;-43
2022/01/12 06:28:21;;;;;;;;;;;;;;;16.38;47.27;103902.69;5045783;28;19929;-43
2022/01/12 06:33:32;;;;;;;;;;;;;;;16.36;47.23;103917.06;5044564;28;19925;-43
2022/01/12 06:35:58;;;;;;;;;;;;;;;16.34;46.92;103913.63;5043643;28;19929;-43
2022/01/12 06:38:25;;;;;;;;;;;;;;;16.33;47.10;103917.25;5043480;28;19924;-43
2022/01/12 06:40:51;;;;;;;;;;;;;;;16.31;46.33;103913.75;5040825;28;19935;-43
2022/01/12 06:43:17;;;;;;;;;;;;;;;16.30;47.05;103915.56;5044881;28;19929;-43
2022/01/12 06:45:44;;;;;;;;;;;;;;;16.28;46.55;103910.28;5045959;28;19952;-42
2022/01/12 06:48:10;;;;;;;;;;;;;;;16.27;47.42;103919.22;5044916;28;19948;-43
2022/01/12 06:50:37;;;;;;;;;;;;;;;16.25;47.21;103915.75;5041646;28;19936;-43
2022/01/12 06:53:03;;;;;;;;;;;;;;;16.25;47.41;103914.88;5043107;28;20332;-43
2022/01/12 06:55:29;;;;;;;;;;;;;;;16.23;47.33;103922.97;5044673;28;19925;-43
2022/01/12 06:57:56;;;;;;;;;;;;;;;16.23;47.42;103922.09;5043276;28;19935;-43
2022/01/12 07:00:22;;;;;;;;;;;;;;;16.21;47.69;103932.88;5041429;28;19971;-43
2022/01/12 07:02:49;;;;;;;;;;;;;;;16.20;47.53;103936.50;5044782;28;20015;-43
2022/01/12 07:05:15;;;;;;;;;;;;;;;16.19;46.71;103948.13;5041337;28;20391;-43
2022/01/12 07:07:42;;;;;;;;;;;;;;;16.17;47.63;103952.69;5038722;28;19937;-44
2022/01/12 07:10:08;;;;;;;;;;;;;;;16.16;47.59;103958.09;5049952;28;20004;-43
2022/01/12 07:12:35;;;;;;;;;;;;;;;16.16;47.42;103963.44;5042806;28;19925;-43
2022/01/12 07:15:02;;;;;;;;;;;;;;;16.15;47.73;103972.41;5041062;28;19940;-43
2022/01/12 07:17:28;;;;;;;;;;;;;;;16.13;47.00;103969.81;5045103;28;20277;-43
2022/01/12 07:19:54;;;;;;;;;;;;;;;16.12;47.58;103973.44;5040065;28;20015;-42
2022/01/12 07:22:21;;;;;;;;;;;;;;;16.11;47.87;103977.00;5044880;28;19931;-43
2022/01/12 07:24:47;;;;;;;;;;;;;;;16.11;47.44;103978.81;5042463;28;19925;-43
2022/01/12 07:27:19;;;;;;;;;;;;;;;16.10;47.76;103985.13;5040958;28;20251;-43
2022/01/12 07:29:45;;;;;;;;;;;;;;;16.10;47.05;103990.47;5041469;28;19933;-43
2022/01/12 07:32:12;;;;;;;;;;;;;;;16.10;47.91;103991.34;5042411;28;19929;-44
2022/01/12 07:34:38;;;;;;;;;;;;;;;16.09;47.80;103988.72;5044355;28;19933;-43
2022/01/12 07:37:05;;;;;;;;;;;;;;;16.07;47.66;103988.78;5043471;28;19928;-43
2022/01/12 07:39:32;;;;;;;;;;;;;;;16.07;47.55;103986.09;5042560;28;20269;-43
2022/01/12 07:41:58;;;;;;;;;;;;;;;16.06;47.12;103995.06;5039673;28;19925;-44
2022/01/12 07:44:24;;;;;;;;;;;;;;;16.06;47.68;104000.44;5044547;28;19947;-43
2022/01/12 07:46:51;;;;;;;;;;;;;;;16.05;47.15;104004.03;5045852;28;19928;-43
2022/01/12 07:49:17;;;;;;;;;;;;;;;16.05;47.65;104006.72;5046283;28;20329;-43
2022/01/12 07:51:43;;;;;;;;;;;;;;;16.04;47.81;103996.97;5043899;28;20321;-43
2022/01/12 07:54:10;;;;;;;;;;;;;;;16.03;47.64;104004.09;5042339;28;19925;-43
2022/01/12 07:56:36;;;;;;;;;;;;;;;16.03;47.11;104011.25;5042339;28;19925;-43
2022/01/12 07:59:02;;;;;;;;;;;;;;;16.04;47.91;104007.66;5043701;28;19939;-44
2022/01/12 08:01:29;;;;;;;;;;;;;;;16.03;46.91;104004.09;5042308;28;19925;-44
2022/01/12 08:03:56;;;;;;;;;;;;;;;16.02;47.65;104005.03;5035981;28;19925;-43
2022/01/12 08:06:22;;;;;;;;;;;;;;;16.02;47.48;104004.16;5044933;28;20316;-44
2022/01/12 08:08:48;;;;;;;;;;;;;;;16.01;47.88;103994.41;5045347;28;19931;-43
2022/01/12 08:11:15;;;;;;;;;;;;;;;16.01;47.14;104005.97;5033588;28;20229;-43
2022/01/12 08:13:42;;;;;;;;;;;;;;;15.98;48.01;104003.41;5044768;28;20367;-43
2022/01/12 08:16:09;;;;;;;;;;;;;;;15.99;46.84;104015.84;5042436;28;20019;-44
2022/01/12 08:18:35;;;;;;;;;;;;;;;15.98;47.06;104015.91;5041528;28;19933;-44
2022/01/12 08:21:04;;;;;;;;;;;;;;;15.99;47.95;104023.00;5041985;28;20011;-44
2022/01/12 08:23:31;;;;;;;;;;;;;;;15.99;47.32;104021.19;5042179;28;19932;-42
2022/01/12 08:25:57;;;;;;;;;;;;;;;15.98;47.03;104015.91;5042483;28;19929;-43
2022/01/12 08:28:24;;;;;;;;;;;;;;;15.99;47.77;104010.50;5041455;28;20551;-43
2022/01/12 08:30:50;;;;;;;;;;;;;;;16.04;47.74;104035.28;5041107;28;20193;-43
2022/01/12 08:33:17;;;;;;;;;;;;;;;16.11;47.74;104029.66;5045000;28;19972;-43
2022/01/12 08:35:43;;;;;;;;;;;;;;;16.19;47.68;104041.78;5041484;28;19925;-44
2022/01/12 08:38:10;;;;;;;;;;;;;;;16.26;47.50;104045.97;5041963;28;19943;-44
2022/01/12 08:40:41;;;;;;;;;;;;;;;16.35;47.11;104049.19;5043224;28;19929;-43
2022/01/12 08:43:08;;;;;;;;;;;;;;;16.43;47.49;104063.13;5044184;28;19924;-44
2022/01/12 08:45:34;;;;;;;;;;;;;;;16.49;46.97;104063.75;5041750;28;19925;-44
2022/01/12 08:48:01;;;;;;;;;;;;;;;16.57;47.02;104063.41;5047584;28;20023;-44
2022/01/12 08:50:28;;;;;;;;;;;;;;;16.61;47.21;104069.53;5047491;28;20340;-43
2022/01/12 08:52:55;;;;;;;;;;;;;;;16.67;46.70;104071.91;5041250;28;20380;-44
2022/01/12 08:55:22;;;;;;;;;;;;;;;16.69;46.86;104076.28;5046106;28;19935;-44
2022/01/12 08:57:50;;;;;;;;;;;;;;;16.71;46.24;104074.41;5048054;28;19925;-45
2022/01/12 09:00:17;;;;;;;;;;;;;;;16.73;46.59;104080.59;5048207;28;19925;-44
2022/01/12 09:02:43;;;;;;;;;;;;;;;16.74;45.88;104085.03;5045531;28;19980;-44
2022/01/12 09:05:14;;;;;;;;;;;;;;;16.74;46.29;104094.88;5047222;28;19925;-44
2022/01/12 09:07:41;;;;;;;;;;;;;;;16.71;45.89;104095.81;5040468;28;20854;-44
2022/01/12 09:10:08;;;;;;;;;;;;;;;16.68;46.93;104101.34;5046360;28;19959;-44
2022/01/12 09:12:36;;;;;;;;;;;;;;;16.66;46.94;104102.31;5044012;28;20027;-45
2022/01/12 09:15:07;;;;;;;;;;;;;;;16.63;46.06;104102.44;5043803;28;20016;-44
2022/01/12 09:17:33;;;;;;;;;;;;;;;16.60;47.15;104110.59;5046510;28;20008;-45
2022/01/12 09:20:02;;;;;;;;;;;;;;;16.57;47.08;104119.66;5043326;28;20591;-44
2022/01/12 09:22:28;;;;;;;;;;;;;;;16.57;46.12;104124.16;5042356;28;20309;-44
2022/01/12 09:24:55;;;;;;;;;;;;;;;16.56;46.68;104125.06;5048154;28;20329;-45
2022/01/12 09:27:21;;;;;;;;;;;;;;;16.52;46.93;104118.94;5042774;28;19987;-45
2022/01/12 09:29:48;;;;;;;;;;;;;;;16.51;47.34;104120.75;5044590;28;19935;-45
2022/01/12 09:32:14;;;;;;;;;;;;;;;16.49;46.71;104128.00;5046743;28;20011;-44
2022/01/12 09:34:41;;;;;;;;;;;;;;;16.50;47.50;104123.53;5041358;28;19928;-43
2022/01/12 09:37:07;;;;;;;;;;;;;;;16.49;47.53;104129.81;5044992;28;20384;-43
2022/01/12 09:39:36;;;;;;;;;;;;;;;16.47;47.32;104129.84;5045121;28;19928;-43
2022/01/12 09:42:03;;;;;;;;;;;;;;;16.47;47.46;104135.22;5042441;28;19933;-43
2022/01/12 09:44:31;;;;;;;;;;;;;;;16.47;47.44;104143.25;5047003;28;19972;-43
2022/01/12 09:46:59;;;;;;;;;;;;;;;16.46;47.37;104148.69;5046495;28;20562;-43
2022/01/12 09:49:25;;;;;;;;;;;;;;;16.46;47.69;104140.66;5044518;28;19932;-43
2022/01/12 09:51:51;;;;;;;;;;;;;;;16.44;46.48;104140.72;5044521;28;19925;-43
2022/01/12 09:54:19;;;;;;;;;;;;;;;16.44;46.82;104143.41;5042331;28;19933;-43
2022/01/12 09:56:45;;;;;;;;;;;;;;;16.45;47.42;104146.94;5040220;28;19932;-44
2022/01/12 09:59:11;;;;;;;;;;;;;;;16.45;47.29;104152.28;5047750;28;20312;-43
2022/01/12 10:01:39;;;;;;;;;;;;;;;16.44;47.32;104161.25;5044186;28;20769;-43
2022/01/12 10:04:08;;;;;;;;;;;;;;;16.42;47.50;104152.41;5040681;28;20472;-43
2022/01/12 10:06:36;;;;;;;;;;;;;;;16.44;47.43;104161.25;5042904;28;20051;-43
2022/01/12 10:09:03;;;;;;;;;;;;;;;16.43;47.39;104159.50;5043478;28;19933;-44
2022/01/12 10:11:29;;;;;;;;;;;;;;;16.42;47.47;104153.28;5047155;28;19931;-43
2022/01/12 10:13:57;;;;;;;;;;;;;;;16.41;47.45;104137.28;5041569;28;19932;-43
2022/01/12 10:16:26;;;;;;;;;;;;;;;16.41;47.36;104137.28;5044214;28;19929;-43
2022/01/12 10:18:54;;;;;;;;;;;;;;;16.40;47.39;104141.78;5046270;28;20083;-43
2022/01/12 10:21:28;;;;;;;;;;;;;;;16.40;46.81;104141.78;5039255;28;20347;-42
2022/01/12 10:23:55;;;;;;;;;;;;;;;16.40;47.13;104143.56;5041610;28;20360;-43
2022/01/12 10:26:33;;;;;;;;;;;;;;;16.39;47.61;104136.47;5047342;28;20228;-43
2022/01/12 10:29:10;;;;;;;;;;;;;;;16.39;47.52;104139.16;5045118;28;20625;-43
2022/01/12 10:31:44;;;;;;;;;;;;;;;16.41;47.56;104135.47;5040439;28;19932;-42
2022/01/12 10:34:17;;;;;;;;;;;;;;;16.41;47.69;104131.94;5046624;28;19926;-44
2022/01/12 10:36:44;;;;;;;;;;;;;;;16.40;47.57;104138.19;5042793;28;19935;-43
2022/01/12 10:39:12;;;;;;;;;;;;;;;16.42;47.49;104141.69;5043291;28;20354;-43
2022/01/12 10:41:56;;;;;;;;;;;;;;;16.42;47.29;104139.91;5041734;28;20552;-43
2022/01/12 10:44:30;;;;;;;;;;;;;;;16.42;47.23;104136.34;5044914;28;20282;-43
2022/01/12 10:47:03;;;;;;;;;;;;;;;16.42;46.77;104139.03;5045062;28;19932;-44
2022/01/12 10:49:37;;;;;;;;;;;;;;;16.43;46.88;104148.78;5035670;28;19925;-44
2022/01/12 10:52:07;;;;;;;;;;;;;;;16.45;47.45;104146.94;5045754;28;19935;-44
2022/01/12 10:54:42;;;;;;;;;;;;;;;16.46;47.11;104148.69;5044526;28;19929;-42
2022/01/12 10:57:12;;;;;;;;;;;;;;;16.46;46.37;104149.53;5040924;28;19947;-42
2022/01/12 10:59:39;;;;;;;;;;;;;;;16.48;46.08;104158.41;5039697;28;20333;-40
2022/01/12 11:02:23;;;;;;;;;;;;;;;16.48;46.96;104155.72;5084960;27;20336;-41
2022/01/12 11:04:49;;;;;;;;;;;;;;;16.49;46.23;104161.94;5070122;28;20270;-41
2022/01/12 11:07:16;;;;;;;;;;;;;;;16.50;46.03;104163.69;5069648;28;19932;-40
2022/01/12 11:09:42;;;;;;;;;;;;;;;16.49;47.05;104148.56;5069088;28;20497;-43
2022/01/12 11:12:09;;;;;;;;;;;;;;;16.49;46.28;104151.25;5071112;28;20005;-39
2022/01/12 11:14:35;;;;;;;;;;;;;;;16.48;46.39;104138.75;5073917;28;20010;-43
2022/01/12 11:17:02;;;;;;;;;;;;;;;16.47;47.34;104131.66;5075108;28;20309;-43
2022/01/12 11:19:29;;;;;;;;;;;;;;;16.46;46.24;104137.97;5066845;28;19928;-44
2022/01/12 11:22:02;;;;;;;;;;;;;;;16.46;47.39;104140.66;5069180;28;19925;-44
2022/01/12 11:24:28;;;;;;;;;;;;;;;16.44;47.48;104135.38;5066912;28;19935;-44
2022/01/12 11:26:55;;;;;;;;;;;;;;;16.43;47.11;104122.03;5070788;28;20018;-45
2022/01/12 11:29:25;;;;;;;;;;;;;;;16.42;47.36;104133.66;5069232;28;19928;-44
2022/01/12 11:31:52;;;;;;;;;;;;;;;16.40;47.15;104128.38;5070156;28;20016;-44
2022/01/12 11:34:19;;;;;;;;;;;;;;;16.38;47.22;104126.69;5071417;28;20246;-44
2022/01/12 11:36:45;;;;;;;;;;;;;;;16.38;47.33;104129.38;5067516;28;19925;-44
2022/01/12 11:39:16;;;;;;;;;;;;;;;16.37;47.43;104119.59;5070039;28;19931;-44
2022/01/12 11:41:43;;;;;;;;;;;;;;;16.36;47.36;104116.06;5069362;28;19932;-44
2022/01/12 11:44:18;;;;;;;;;;;;;;;16.35;46.93;104111.63;5071523;28;19928;-45
2022/01/12 11:46:49;;;;;;;;;;;;;;;16.38;47.05;104116.84;5068891;28;19925;-44
2022/01/12 11:49:32;;;;;;;;;;;;;;;16.45;47.53;104120.16;5065577;28;19929;-44
2022/01/12 11:52:00;;;;;;;;;;;;;;;16.53;46.49;104120.72;5066650;28;20281;-44
2022/01/12 11:54:33;;;;;;;;;;;;;;;16.60;46.82;104118.63;5070564;28;20020;-44
2022/01/12 11:57:04;;;;;;;;;;;;;;;16.68;47.10;104117.41;5072143;28;19931;-44
2022/01/12 11:59:48;;;;;;;;;;;;;;;16.74;46.54;104106.44;5063675;28;20015;-44
2022/01/12 12:02:15;;;;;;;;;;;;;;;16.82;46.60;104110.63;5087923;28;20574;-44
2022/01/12 12:04:56;;;;;;;;;;;;;;;16.89;46.07;104104.94;5091328;28;20015;-44
2022/01/12 12:07:23;;;;;;;;;;;;;;;16.95;45.97;104107.31;5091015;28;19928;-42
2022/01/12 12:09:53;;;;;;;;;;;;;;;17.02;46.23;104111.50;5085084;28;19924;-44
2022/01/12 12:12:20;;;;;;;;;;;;;;;17.10;46.86;104110.28;5083038;28;19924;-42
2022/01/12 12:14:48;;;;;;;;;;;;;;;17.17;46.87;104109.94;5074901;28;20067;-43
2022/01/12 12:17:15;;;;;;;;;;;;;;;17.24;46.01;104098.00;5075728;28;19924;-43
2022/01/12 12:19:42;;;;;;;;;;;;;;;17.31;45.94;104093.22;5075402;28;20022;-42
2022/01/12 12:22:13;;;;;;;;;;;;;;;17.37;46.56;104082.25;5071796;28;20011;-43
2022/01/12 12:24:40;;;;;;;;;;;;;;;17.42;45.72;104090.94;5074837;28;20011;-43
2022/01/12 12:27:08;;;;;;;;;;;;;;;17.47;46.32;104085.34;5078108;28;19936;-41
2022/01/12 12:29:35;;;;;;;;;;;;;;;17.52;45.90;104089.56;5073878;28;19935;-42
2022/01/12 12:32:02;;;;;;;;;;;;;;;17.57;45.53;104086.69;5073185;28;20231;-42
2022/01/12 12:34:29;;;;;;;;;;;;;;;17.62;45.54;104083.78;5075645;28;20344;-43
2022/01/12 12:37:06;;;;;;;;;;;;;;;17.66;45.57;104080.03;5070697;28;19997;-42
2022/01/12 12:39:34;;;;;;;;;;;;;;;17.69;45.60;104080.75;5069835;28;20332;-43
2022/01/12 12:42:01;;;;;;;;;;;;;;;17.73;45.80;104095.75;5079347;28;20347;-43
2022/01/12 12:44:29;;;;;;;;;;;;;;;17.78;45.47;104094.69;5075911;28;20011;-42
2022/01/12 12:47:05;;;;;;;;;;;;;;;17.80;45.64;104087.44;5076080;28;20062;-43
2022/01/12 12:49:35;;;;;;;;;;;;;;;17.84;45.77;104116.72;5072180;28;19928;-43
2022/01/12 12:52:02;;;;;;;;;;;;;;;17.86;45.17;104103.25;5077795;28;19934;-42
2022/01/12 12:54:29;;;;;;;;;;;;;;;17.89;45.43;104103.97;5070779;28;20031;-42
2022/01/12 12:57:07;;;;;;;;;;;;;;;17.93;45.02;104104.69;5072472;28;20305;-43
2022/01/12 12:59:34;;;;;;;;;;;;;;;17.96;45.60;104105.41;5066517;28;19963;-43
2022/01/12 13:02:08;;;;;;;;;;;;;;;17.97;45.25;104117.91;5072573;28;19924;-42
2022/01/12 13:04:35;;;;;;;;;;;;;;;18.00;45.12;104109.69;5075893;28;19964;-43
2022/01/12 13:07:10;;;;;;;;;;;;;;;18.02;45.09;104112.31;5071556;28;20030;-42
2022/01/12 13:09:37;;;;;;;;;;;;;;;18.05;45.10;104113.97;5072362;28;20118;-43
2022/01/12 13:12:03;;;;;;;;;;;;;;;18.08;44.81;104120.06;5072666;28;19928;-43
2022/01/12 13:14:39;;;;;;;;;;;;;;;18.10;44.97;104118.19;5072769;28;19943;-42
2022/01/12 13:17:06;;;;;;;;;;;;;;;18.12;44.72;104118.09;5072468;28;20008;-42
2022/01/12 13:22:36;;;;;;;;;;;;;;;18.15;45.07;104112.59;5074532;28;19938;-43
2022/01/12 13:25:08;;;;;;;;;;;;;;;18.17;44.84;104111.56;5067939;28;20023;-43
2022/01/12 13:27:35;;;;;;;;;;;;;;;18.18;44.96;104118.69;5071982;28;20012;-43
2022/01/12 13:30:02;;;;;;;;;;;;;;;18.19;44.46;104115.03;5077281;28;20406;-43
2022/01/12 13:32:28;;;;;;;;;;;;;;;18.21;44.79;104113.16;5071329;28;20019;-43
2022/01/12 13:34:55;;;;;;;;;;;;;;;18.24;45.01;104117.50;5071935;28;19932;-43
2022/01/12 13:37:22;;;;;;;;;;;;;;;18.26;44.75;104115.63;5072007;28;20023;-43
2022/01/12 13:40:01;;;;;;;;;;;;;;;18.28;44.93;104115.53;5073555;28;19951;-42
2022/01/12 13:42:31;;;;;;;;;;;;;;;18.29;45.00;104117.25;5074563;28;20374;-41
2022/01/12 13:45:04;;;;;;;;;;;;;;;18.31;44.64;104116.25;5074818;28;19970;-43
2022/01/12 13:47:34;;;;;;;;;;;;;;;18.33;44.64;104121.53;5067192;28;20367;-42
2022/01/12 13:50:09;;;;;;;;;;;;;;;18.34;45.13;104112.56;5071431;28;19929;-41
2022/01/12 13:52:36;;;;;;;;;;;;;;;18.34;44.51;104109.88;5072433;28;19928;-42
2022/01/12 13:55:13;;;;;;;;;;;;;;;18.36;44.86;104114.19;5072612;28;20321;-42
2022/01/12 13:57:40;;;;;;;;;;;;;;;18.37;44.70;104115.06;5065126;28;20020;-42
2022/01/12 14:00:09;;;;;;;;;;;;;;;18.39;44.83;104122.13;5067346;28;20290;-42
2022/01/12 14:02:43;;;;;;;;;;;;;;;18.40;44.66;104118.47;5067903;28;20015;-43
2022/01/12 14:05:16;;;;;;;;;;;;;;;18.42;44.71;104126.47;5066697;28;19951;-42
2022/01/12 14:07:51;;;;;;;;;;;;;;;18.42;45.01;104121.97;5073469;28;19942;-43